Time;durP1;ratioP1;P1;durP2;ratioP2;P2;SDS_P1;SDS_P2;PMS_P1;PMS_P2;Temp;Humidity;BMP_temperature;BMP_pressure;BME280_temperature;BME280_humidity;BME280_pressure;Samples;Min_cycle;Max_cycle;Signal;HPM_P1;HPM_P2
2023/05/15 00:01:20;;;;;;;97.90;46.83;;;12.50;99.90;;;;;;7291113;19;20206;-94
2023/05/15 00:03:47;;;;;;;103.47;51.20;;;12.50;99.90;;;;;;7296595;19;20191;-94
2023/05/15 00:06:13;;;;;;;110.10;52.67;;;12.40;99.90;;;;;;7296121;19;20189;-93
2023/05/15 00:08:39;;;;;;;110.70;52.93;;;12.40;99.90;;;;;;7298138;19;20196;-92
2023/05/15 00:11:05;;;;;;;106.20;51.60;;;12.40;99.90;;;;;;7295637;19;20601;-93
2023/05/15 00:13:31;;;;;;;105.93;51.23;;;12.30;99.90;;;;;;7296553;19;20189;-93
2023/05/15 00:15:57;;;;;;;100.73;49.90;;;12.30;99.90;;;;;;7296611;19;20209;-93
2023/05/15 00:18:23;;;;;;;89.00;45.60;;;12.30;99.90;;;;;;7319073;19;20184;-92
2023/05/15 00:20:49;;;;;;;89.23;47.07;;;12.20;99.90;;;;;;7295951;19;20189;-93
2023/05/15 00:23:15;;;;;;;95.23;47.77;;;12.10;99.90;;;;;;7295735;19;20560;-92
2023/05/15 00:25:40;;;;;;;95.80;46.67;;;12.10;99.90;;;;;;7296212;19;20254;-92
2023/05/15 00:28:06;;;;;;;85.83;44.77;;;12.10;99.90;;;;;;7293410;19;20265;-93
2023/05/15 00:30:32;;;;;;;92.33;47.13;;;12.00;99.90;;;;;;7293521;19;20202;-93
2023/05/15 00:32:58;;;;;;;91.93;47.23;;;12.00;99.90;;;;;;7292415;19;20194;-94
2023/05/15 00:35:24;;;;;;;84.60;43.27;;;12.00;99.90;;;;;;7305762;19;20252;-94
2023/05/15 00:37:50;;;;;;;92.50;46.97;;;11.90;99.90;;;;;;7314199;19;20189;-93
2023/05/15 00:40:20;;;;;;;96.67;47.97;;;11.90;99.90;;;;;;7294355;19;20217;-93
2023/05/15 00:42:47;;;;;;;91.90;47.77;;;11.90;99.90;;;;;;7294477;19;20189;-92
2023/05/15 00:45:14;;;;;;;88.57;47.23;;;11.90;99.90;;;;;;7296304;19;20185;-93
2023/05/15 00:47:41;;;;;;;92.93;47.83;;;11.90;99.90;;;;;;7295332;19;20179;-93
2023/05/15 00:50:10;;;;;;;85.13;46.47;;;11.90;99.90;;;;;;7296694;19;20191;-93
2023/05/15 00:52:37;;;;;;;86.17;46.70;;;11.90;99.90;;;;;;7297735;19;20192;-92
2023/05/15 00:55:04;;;;;;;83.53;45.77;;;11.90;99.90;;;;;;7294491;19;20200;-94
2023/05/15 00:57:33;;;;;;;84.63;46.03;;;11.90;99.90;;;;;;7295346;19;20185;-92
2023/05/15 01:00:02;;;;;;;80.73;43.60;;;11.80;99.90;;;;;;7293844;19;20185;-93
2023/05/15 01:02:28;;;;;;;74.40;43.37;;;11.80;99.90;;;;;;7294263;19;20196;-93
2023/05/15 01:04:54;;;;;;;80.97;44.87;;;11.80;99.90;;;;;;7309948;19;20192;-92
2023/05/15 01:07:20;;;;;;;79.40;43.87;;;11.80;99.90;;;;;;7312618;19;20287;-92
2023/05/15 01:09:48;;;;;;;78.67;44.20;;;11.70;99.90;;;;;;7294814;19;20230;-92
2023/05/15 01:12:15;;;;;;;79.80;42.70;;;11.80;99.90;;;;;;7296815;19;20266;-93
2023/05/15 01:14:41;;;;;;;71.63;41.40;;;11.70;99.90;;;;;;7292978;19;20232;-91
2023/05/15 01:17:07;;;;;;;72.50;41.40;;;11.60;99.90;;;;;;7294052;19;20194;-92
2023/05/15 01:19:34;;;;;;;67.33;40.23;;;11.60;99.90;;;;;;7293268;19;20204;-91
2023/05/15 01:22:30;;;;;;;69.03;40.90;;;11.60;99.90;;;;;;7294077;19;20178;-93
2023/05/15 01:25:26;;;;;;;67.20;39.60;;;11.60;99.90;;;;;;7275291;19;20201;-93
2023/05/15 01:28:02;;;;;;;71.60;42.23;;;11.60;99.90;;;;;;7296711;19;20181;-93
2023/05/15 01:30:33;;;;;;;65.83;38.93;;;11.60;99.90;;;;;;7192634;19;2004463;-92
2023/05/15 01:33:07;;;;;;;70.27;41.47;;;11.60;99.90;;;;;;7295879;19;20173;-93
2023/05/15 01:35:58;;;;;;;71.70;42.53;;;11.60;99.90;;;;;;7294807;19;20220;-93
2023/05/15 01:38:34;;;;;;;73.97;42.47;;;11.70;99.90;;;;;;7296989;19;20183;-93
2023/05/15 01:41:18;;;;;;;67.80;39.17;;;11.70;99.90;;;;;;7191654;19;2004409;-92
2023/05/15 01:43:51;;;;;;;63.50;39.83;;;11.60;99.90;;;;;;7294662;19;20206;-93
2023/05/15 01:46:20;;;;;;;64.43;39.13;;;11.60;99.90;;;;;;7293530;19;20678;-93
2023/05/15 01:48:50;;;;;;;67.07;38.70;;;11.60;99.90;;;;;;7293328;19;20206;-93
2023/05/15 01:51:19;;;;;;;67.33;40.80;;;11.50;99.90;;;;;;7294460;19;20205;-93
2023/05/15 01:53:46;;;;;;;65.63;40.60;;;11.50;99.90;;;;;;7294658;19;20541;-92
2023/05/15 01:56:14;;;;;;;67.07;40.10;;;11.50;99.90;;;;;;7294484;19;20579;-92
2023/05/15 01:58:41;;;;;;;69.37;40.07;;;11.50;99.90;;;;;;7294843;19;20201;-94
2023/05/15 02:01:09;;;;;;;64.40;39.73;;;11.50;99.90;;;;;;7294449;19;20210;-92
2023/05/15 02:03:36;;;;;;;64.17;38.40;;;11.50;99.90;;;;;;7295008;19;20205;-93
2023/05/15 02:06:04;;;;;;;66.77;39.60;;;11.40;99.90;;;;;;7294335;19;20551;-93
2023/05/15 02:08:32;;;;;;;61.80;38.73;;;11.40;99.90;;;;;;7291536;19;20199;-94
2023/05/15 02:11:01;;;;;;;60.97;38.50;;;11.40;99.90;;;;;;7294418;19;20663;-93
2023/05/15 02:13:28;;;;;;;66.40;39.70;;;11.40;99.90;;;;;;7295544;19;20183;-94
2023/05/15 02:15:54;;;;;;;70.27;40.43;;;11.50;99.90;;;;;;7313454;19;20265;-92
2023/05/15 02:18:20;;;;;;;64.57;38.10;;;11.50;99.90;;;;;;7313673;19;20194;-93
2023/05/15 02:20:46;;;;;;;66.87;39.43;;;11.60;99.90;;;;;;7293743;19;20180;-94
2023/05/15 02:23:14;;;;;;;62.47;37.33;;;11.60;99.90;;;;;;7295457;19;20198;-95
2023/05/15 02:26:03;;;;;;;58.33;37.20;;;11.50;99.90;;;;;;7293529;19;20190;-94
2023/05/15 02:28:41;;;;;;;59.13;37.20;;;11.50;99.90;;;;;;7274011;19;20845;-94
2023/05/15 02:31:18;;;;;;;57.87;36.20;;;11.50;99.90;;;;;;7293450;19;20651;-93
2023/05/15 02:34:02;;;;;;;63.30;37.73;;;11.70;99.90;;;;;;7293526;19;20224;-93
2023/05/15 02:36:32;;;;;;;69.77;41.63;;;11.90;99.90;;;;;;7271467;19;20228;-93
2023/05/15 02:38:59;;;;;;;77.43;46.07;;;12.10;99.90;;;;;;7294666;19;20198;-95
2023/05/15 02:41:26;;;;;;;76.13;44.03;;;12.30;99.90;;;;;;7303257;19;20195;-94
2023/05/15 02:43:54;;;;;;;78.47;46.93;;;12.30;99.90;;;;;;7313992;19;20192;-93
2023/05/15 02:46:20;;;;;;;79.20;46.97;;;12.40;99.90;;;;;;7293813;19;20222;-94
2023/05/15 02:48:47;;;;;;;89.37;47.77;;;12.00;99.90;;;;;;7290801;19;20652;-94
2023/05/15 02:51:13;;;;;;;76.77;47.00;;;11.90;99.90;;;;;;7291638;19;20221;-93
2023/05/15 02:53:40;;;;;;;78.23;45.70;;;11.80;99.90;;;;;;7292208;19;20992;-93
2023/05/15 02:56:07;;;;;;;72.77;44.30;;;11.90;99.90;;;;;;7292869;19;20190;-94
2023/05/15 02:58:34;;;;;;;76.63;45.37;;;11.90;99.90;;;;;;7294875;19;20196;-93
2023/05/15 03:01:00;;;;;;;79.63;46.37;;;11.90;99.90;;;;;;7293969;19;20676;-94
2023/05/15 03:03:26;;;;;;;73.80;44.93;;;11.90;99.90;;;;;;7296557;19;20197;-95
2023/05/15 03:05:52;;;;;;;75.73;45.10;;;12.10;99.90;;;;;;7316939;19;20194;-93
2023/05/15 03:08:18;;;;;;;78.03;46.30;;;12.20;99.90;;;;;;7292536;19;20216;-93
2023/05/15 03:10:44;;;;;;;76.20;44.23;;;12.20;99.90;;;;;;7292649;19;20188;-93
2023/05/15 03:13:10;;;;;;;77.50;45.57;;;12.30;99.90;;;;;;7292758;19;20213;-94
2023/05/15 03:15:36;;;;;;;79.00;45.70;;;12.30;99.90;;;;;;7292152;19;20185;-93
2023/05/15 03:18:02;;;;;;;77.27;46.67;;;12.30;99.90;;;;;;7292228;19;20578;-94
2023/05/15 03:20:28;;;;;;;81.70;46.80;;;12.30;99.90;;;;;;7293074;19;20184;-94
2023/05/15 03:22:54;;;;;;;83.83;46.63;;;12.30;99.90;;;;;;7315708;19;20209;-92
2023/05/15 03:25:21;;;;;;;79.83;46.97;;;12.30;99.90;;;;;;7292659;19;20180;-93
2023/05/15 03:27:47;;;;;;;82.97;46.23;;;12.40;99.90;;;;;;7291666;19;20195;-92
2023/05/15 03:30:13;;;;;;;83.07;45.40;;;12.40;99.90;;;;;;7292859;19;20204;-93
2023/05/15 03:32:39;;;;;;;79.97;45.17;;;12.30;99.90;;;;;;7291935;19;20230;-93
2023/05/15 03:35:05;;;;;;;85.67;46.93;;;12.30;99.90;;;;;;7291775;19;20599;-93
2023/05/15 03:37:31;;;;;;;84.57;45.97;;;12.30;99.90;;;;;;7291680;19;20191;-92
2023/05/15 03:39:57;;;;;;;78.73;45.43;;;12.40;99.90;;;;;;7290526;19;20260;-93
2023/05/15 03:42:23;;;;;;;74.67;45.63;;;12.40;99.90;;;;;;7312629;19;20629;-93
2023/05/15 03:44:50;;;;;;;74.23;44.50;;;12.50;99.90;;;;;;7290719;19;20186;-93
2023/05/15 03:47:16;;;;;;;80.20;46.63;;;12.40;99.90;;;;;;7291315;19;20248;-93
2023/05/15 03:49:41;;;;;;;75.27;43.07;;;12.30;99.90;;;;;;7290015;19;20181;-92
2023/05/15 03:52:08;;;;;;;76.27;44.60;;;12.20;99.90;;;;;;7290413;19;20199;-93
2023/05/15 03:54:35;;;;;;;77.37;42.47;;;12.10;99.90;;;;;;7288950;19;20185;-93
2023/05/15 03:57:03;;;;;;;76.07;43.77;;;11.90;99.90;;;;;;7293323;19;20604;-92
2023/05/15 03:59:29;;;;;;;76.80;44.23;;;11.80;99.90;;;;;;7288717;19;20193;-93
2023/05/15 04:01:55;;;;;;;75.90;43.33;;;11.80;99.90;;;;;;7297804;19;20205;-94
2023/05/15 04:04:21;;;;;;;76.57;44.03;;;12.00;99.90;;;;;;7312909;19;20185;-93
2023/05/15 04:06:47;;;;;;;78.73;43.67;;;12.00;99.90;;;;;;7291054;19;20192;-93
2023/05/15 04:09:13;;;;;;;75.50;42.70;;;12.10;99.90;;;;;;7289457;19;20570;-92
2023/05/15 04:11:39;;;;;;;77.47;42.13;;;12.10;99.90;;;;;;7290592;19;20205;-93
2023/05/15 04:14:05;;;;;;;77.20;42.80;;;12.10;99.90;;;;;;7289814;19;20209;-93
2023/05/15 04:16:31;;;;;;;77.50;43.20;;;12.10;99.90;;;;;;7289332;19;20213;-92
2023/05/15 04:18:56;;;;;;;72.53;41.03;;;12.10;99.90;;;;;;7289532;19;20245;-93
2023/05/15 04:21:22;;;;;;;68.87;41.17;;;12.10;99.90;;;;;;7311182;19;20181;-93
2023/05/15 04:23:48;;;;;;;72.20;41.87;;;11.90;99.90;;;;;;7291031;19;20188;-93
2023/05/15 04:26:14;;;;;;;70.40;41.90;;;11.90;99.90;;;;;;7295254;19;20188;-93
2023/05/15 04:28:40;;;;;;;70.57;41.47;;;11.90;99.90;;;;;;7290696;19;20210;-94
2023/05/15 04:31:06;;;;;;;75.97;42.67;;;12.10;99.90;;;;;;7291709;19;20189;-93
2023/05/15 04:33:32;;;;;;;69.20;42.23;;;12.10;99.90;;;;;;7289111;19;20599;-93
2023/05/15 04:35:57;;;;;;;70.20;41.33;;;12.10;99.90;;;;;;7289289;19;20188;-92
2023/05/15 04:38:23;;;;;;;67.30;40.03;;;12.20;99.90;;;;;;7312003;19;20660;-92
2023/05/15 04:40:50;;;;;;;66.53;40.10;;;12.10;99.90;;;;;;7289891;19;20193;-93
2023/05/15 04:43:15;;;;;;;71.70;41.80;;;12.00;99.90;;;;;;7291574;19;20206;-93
2023/05/15 04:45:41;;;;;;;69.13;40.77;;;11.90;99.90;;;;;;7290382;19;20195;-93
2023/05/15 04:48:07;;;;;;;69.23;41.20;;;12.00;99.90;;;;;;7291700;19;20221;-92
2023/05/15 04:50:33;;;;;;;65.13;40.47;;;12.10;99.90;;;;;;7295661;19;20648;-92
2023/05/15 04:52:59;;;;;;;68.37;40.33;;;12.10;99.90;;;;;;7294125;19;20203;-91
2023/05/15 04:55:24;;;;;;;66.23;39.27;;;12.10;99.90;;;;;;7314046;19;20189;-91
2023/05/15 04:57:50;;;;;;;64.93;40.20;;;12.10;99.90;;;;;;7294855;19;20188;-91
2023/05/15 05:00:16;;;;;;;64.87;39.87;;;12.00;99.90;;;;;;7292289;19;20528;-91
2023/05/15 05:02:42;;;;;;;65.07;40.27;;;12.10;99.90;;;;;;7293472;19;20192;-91
2023/05/15 05:05:08;;;;;;;68.53;39.47;;;12.30;99.90;;;;;;7292934;19;20233;-91
2023/05/15 05:07:34;;;;;;;62.87;39.10;;;12.30;99.90;;;;;;7296347;19;20223;-93
2023/05/15 05:10:01;;;;;;;66.37;41.60;;;12.40;99.90;;;;;;7294062;19;20188;-91
2023/05/15 05:12:27;;;;;;;70.10;42.83;;;12.30;99.90;;;;;;7292426;19;20239;-92
2023/05/15 05:14:54;;;;;;;64.57;40.00;;;12.30;99.90;;;;;;7316069;19;20184;-92
2023/05/15 05:17:20;;;;;;;65.97;41.13;;;12.50;99.90;;;;;;7291880;19;20194;-92
2023/05/15 05:19:46;;;;;;;66.87;41.33;;;12.70;99.90;;;;;;7295032;19;20522;-91
2023/05/15 05:22:11;;;;;;;68.67;41.20;;;12.80;99.90;;;;;;7293072;19;20189;-91
2023/05/15 05:24:37;;;;;;;62.50;40.50;;;12.90;99.90;;;;;;7291233;19;20246;-91
2023/05/15 05:27:04;;;;;;;64.77;40.33;;;12.70;99.90;;;;;;7290413;19;20222;-90
2023/05/15 05:29:33;;;;;;;64.27;40.53;;;12.60;99.90;;;;;;7290901;19;20192;-91
2023/05/15 05:31:58;;;;;;;68.17;41.60;;;12.60;99.90;;;;;;7291894;19;20198;-91
2023/05/15 05:34:24;;;;;;;71.50;42.40;;;12.40;99.90;;;;;;7309922;19;20181;-92
2023/05/15 05:36:50;;;;;;;68.30;41.63;;;12.00;99.90;;;;;;7290840;19;20196;-94
2023/05/15 05:39:16;;;;;;;68.13;43.13;;;12.10;99.90;;;;;;7288939;19;20705;-92
2023/05/15 05:41:42;;;;;;;67.80;43.57;;;12.10;99.90;;;;;;7289754;19;20185;-92
2023/05/15 05:44:08;;;;;;;73.80;42.77;;;12.30;99.90;;;;;;7290316;19;20665;-92
2023/05/15 05:46:34;;;;;;;68.70;43.60;;;12.50;99.90;;;;;;7292393;19;20212;-90
2023/05/15 05:49:00;;;;;;;67.87;42.03;;;12.60;99.90;;;;;;7290424;19;20228;-90
2023/05/15 05:51:26;;;;;;;68.83;43.70;;;12.70;99.90;;;;;;7298414;19;20203;-91
2023/05/15 05:53:52;;;;;;;70.60;42.70;;;12.90;99.90;;;;;;7312851;19;20202;-90
2023/05/15 05:56:18;;;;;;;67.83;42.60;;;13.00;99.90;;;;;;7288913;19;20558;-91
2023/05/15 05:58:44;;;;;;;65.37;40.50;;;12.80;99.90;;;;;;7286910;19;20195;-91
2023/05/15 06:01:10;;;;;;;62.77;39.60;;;12.60;99.90;;;;;;7288273;19;20213;-91
2023/05/15 06:03:37;;;;;;;60.67;39.93;;;12.40;99.90;;;;;;7290055;19;20205;-91
2023/05/15 06:06:03;;;;;;;64.43;40.53;;;12.20;99.90;;;;;;7288069;19;20183;-91
2023/05/15 06:08:39;;;;;;;66.50;40.40;;;12.30;99.90;;;;;;7287322;19;20499;-90
2023/05/15 06:11:05;;;;;;;68.67;42.30;;;12.50;99.90;;;;;;7288900;19;20180;-91
2023/05/15 06:13:31;;;;;;;70.40;43.07;;;12.70;99.90;;;;;;7288110;19;20187;-90
2023/05/15 06:15:56;;;;;;;63.20;39.87;;;12.80;99.90;;;;;;7291209;19;20209;-90
2023/05/15 06:18:23;;;;;;;67.03;41.00;;;12.70;99.90;;;;;;7312132;19;20308;-90
2023/05/15 06:20:49;;;;;;;62.30;39.77;;;12.80;99.90;;;;;;7287624;19;20692;-91
2023/05/15 06:23:14;;;;;;;62.33;39.50;;;12.80;99.90;;;;;;7287171;19;25768;-90
2023/05/15 06:25:40;;;;;;;63.20;40.57;;;12.80;99.90;;;;;;7288322;19;20185;-91
2023/05/15 06:28:06;;;;;;;64.50;40.43;;;12.90;99.90;;;;;;7288451;19;20182;-91
2023/05/15 06:30:32;;;;;;;58.60;38.80;;;13.00;99.90;;;;;;7287281;19;20186;-91
2023/05/15 06:32:57;;;;;;;64.23;39.90;;;13.00;99.90;;;;;;7287772;19;20203;-91
2023/05/15 06:35:26;;;;;;;65.50;40.30;;;12.60;99.90;;;;;;7311417;19;20182;-90
2023/05/15 06:37:52;;;;;;;63.17;39.97;;;12.70;99.90;;;;;;7291004;19;20234;-90
2023/05/15 06:40:19;;;;;;;62.60;38.87;;;12.70;99.90;;;;;;7287183;19;20185;-90
2023/05/15 06:42:46;;;;;;;67.77;41.30;;;12.80;99.90;;;;;;7286940;19;25992;-91
2023/05/15 06:45:11;;;;;;;66.37;40.90;;;12.80;99.90;;;;;;7287937;19;20185;-92
2023/05/15 06:47:37;;;;;;;75.37;42.57;;;12.90;99.90;;;;;;7287655;19;20178;-90
2023/05/15 06:50:04;;;;;;;72.47;42.13;;;12.90;99.90;;;;;;7287441;19;20238;-90
2023/05/15 06:52:30;;;;;;;70.73;41.30;;;13.10;99.90;;;;;;7287367;19;20182;-91
2023/05/15 06:54:56;;;;;;;63.90;39.90;;;13.10;99.90;;;;;;7299156;19;20256;-91
2023/05/15 06:57:21;;;;;;;70.80;41.83;;;13.10;99.90;;;;;;7304689;19;20192;-91
2023/05/15 06:59:47;;;;;;;64.77;39.40;;;13.20;99.90;;;;;;7286205;19;20228;-91
2023/05/15 07:02:13;;;;;;;61.53;37.50;;;13.30;99.90;;;;;;7286779;19;20245;-91
2023/05/15 07:04:39;;;;;;;62.43;37.43;;;13.50;99.90;;;;;;7287802;19;20192;-91
2023/05/15 07:07:05;;;;;;;64.43;38.37;;;13.60;99.90;;;;;;7287654;19;20184;-89
2023/05/15 07:09:31;;;;;;;65.40;39.43;;;13.60;99.90;;;;;;7286569;19;20191;-91
2023/05/15 07:11:57;;;;;;;61.57;37.17;;;13.50;99.90;;;;;;7286444;19;20215;-91
2023/05/15 07:14:23;;;;;;;61.00;37.97;;;13.40;99.90;;;;;;7308580;19;20187;-90
2023/05/15 07:16:49;;;;;;;59.60;36.67;;;13.20;99.90;;;;;;7286995;19;20198;-91
2023/05/15 07:19:19;;;;;;;61.97;38.40;;;13.10;99.90;;;;;;7287063;19;20190;-91
2023/05/15 07:21:45;;;;;;;61.93;38.47;;;13.10;99.90;;;;;;7286618;19;20191;-90
2023/05/15 07:24:11;;;;;;;62.20;37.93;;;13.20;99.90;;;;;;7286527;19;20185;-90
2023/05/15 07:26:37;;;;;;;62.97;37.17;;;13.50;99.90;;;;;;7287344;19;20655;-91
2023/05/15 07:29:06;;;;;;;61.53;37.60;;;13.70;99.90;;;;;;7287196;19;20181;-90
2023/05/15 07:31:32;;;;;;;61.03;37.67;;;13.90;99.90;;;;;;7288016;19;20211;-91
2023/05/15 07:33:58;;;;;;;61.53;36.93;;;14.10;99.90;;;;;;7286815;19;20203;-90
2023/05/15 07:36:24;;;;;;;53.70;34.20;;;14.20;99.90;;;;;;7308357;19;20195;-90
2023/05/15 07:38:49;;;;;;;59.70;38.47;;;14.40;99.90;;;;;;7287987;19;20226;-90
2023/05/15 07:41:15;;;;;;;61.37;37.30;;;14.60;99.90;;;;;;7286903;19;20197;-91
2023/05/15 07:43:41;;;;;;;60.33;36.07;;;14.80;99.90;;;;;;7285846;19;20655;-91
2023/05/15 07:46:07;;;;;;;54.43;34.43;;;15.00;99.90;;;;;;7285203;19;20534;-90
2023/05/15 07:48:32;;;;;;;54.27;33.87;;;15.20;99.90;;;;;;7286375;19;20191;-91
2023/05/15 07:50:58;;;;;;;55.40;34.83;;;15.30;99.90;;;;;;7286498;19;20272;-91
2023/05/15 07:53:25;;;;;;;51.17;33.60;;;15.40;99.90;;;;;;7308124;19;20180;-90
2023/05/15 07:55:54;;;;;;;52.63;33.17;;;15.40;99.90;;;;;;7285836;19;20240;-91
2023/05/15 07:58:20;;;;;;;52.27;34.00;;;15.40;99.90;;;;;;7286568;19;20710;-91
2023/05/15 08:00:46;;;;;;;52.57;33.63;;;15.60;99.90;;;;;;7284802;19;20201;-92
2023/05/15 08:03:11;;;;;;;57.20;35.87;;;15.50;99.90;;;;;;7285412;19;20698;-88
2023/05/15 08:05:37;;;;;;;52.27;34.87;;;15.40;99.90;;;;;;7286237;19;20184;-91
2023/05/15 08:08:03;;;;;;;54.23;35.40;;;15.40;99.90;;;;;;7284512;19;20682;-88
2023/05/15 08:10:29;;;;;;;54.03;34.07;;;15.40;99.90;;;;;;7285824;19;20191;-89
2023/05/15 08:12:55;;;;;;;53.10;34.70;;;15.50;99.90;;;;;;7306759;19;20204;-88
2023/05/15 08:15:21;;;;;;;54.17;33.93;;;15.40;99.90;;;;;;7283305;19;20706;-89
2023/05/15 08:17:46;;;;;;;54.73;34.60;;;15.40;99.90;;;;;;7286373;19;20211;-89
2023/05/15 08:20:12;;;;;;;49.13;31.63;;;15.30;99.90;;;;;;7283880;19;20201;-89
2023/05/15 08:22:39;;;;;;;48.20;31.53;;;15.40;99.90;;;;;;7290837;19;20257;-90
2023/05/15 08:25:07;;;;;;;51.50;31.60;;;15.10;99.90;;;;;;7297985;19;20226;-89
2023/05/15 08:27:33;;;;;;;47.30;31.43;;;15.10;99.90;;;;;;7297361;19;20198;-89
2023/05/15 08:29:59;;;;;;;46.17;28.67;;;15.40;99.90;;;;;;7296525;19;20223;-89
2023/05/15 08:32:26;;;;;;;45.30;28.10;;;16.00;99.90;;;;;;7317775;19;20192;-89
2023/05/15 08:34:52;;;;;;;42.90;27.97;;;16.60;99.90;;;;;;7293790;19;20208;-89
2023/05/15 08:37:17;;;;;;;41.73;27.17;;;17.00;99.90;;;;;;7298058;19;20184;-90
2023/05/15 08:39:43;;;;;;;42.23;26.80;;;17.00;99.90;;;;;;7295998;19;20278;-90
2023/05/15 08:42:27;;;;;;;42.23;27.03;;;17.00;99.90;;;;;;7294902;19;20264;-90
2023/05/15 08:44:54;;;;;;;43.90;27.67;;;17.20;99.90;;;;;;7296770;19;20196;-89
2023/05/15 08:47:20;;;;;;;46.10;29.27;;;17.20;99.90;;;;;;7292357;19;20189;-90
2023/05/15 08:50:04;;;;;;;46.70;30.03;;;17.10;99.90;;;;;;7293573;19;20224;-89
2023/05/15 08:52:33;;;;;;;44.27;28.73;;;16.90;99.90;;;;;;7270552;19;20280;-89
2023/05/15 08:54:59;;;;;;;50.47;30.60;;;16.80;99.90;;;;;;7290393;19;20192;-88
2023/05/15 08:57:27;;;;;;;48.17;28.83;;;16.90;99.90;;;;;;7315531;19;20200;-90
2023/05/15 08:59:53;;;;;;;49.50;30.73;;;16.80;99.90;;;;;;7290833;19;20182;-89
2023/05/15 09:02:20;;;;;;;49.00;30.07;;;16.80;99.90;;;;;;7290065;19;20189;-89
2023/05/15 09:04:46;;;;;;;50.37;30.27;;;16.60;99.90;;;;;;7291642;19;20303;-89
2023/05/15 09:07:14;;;;;;;51.57;30.40;;;16.50;99.90;;;;;;7291478;19;20185;-90
2023/05/15 09:09:42;;;;;;;49.90;30.50;;;16.40;99.90;;;;;;7291196;19;20183;-90
2023/05/15 09:12:13;;;;;;;55.80;32.03;;;16.00;99.90;;;;;;7291346;19;20181;-90
2023/05/15 09:14:39;;;;;;;53.43;31.33;;;15.90;99.90;;;;;;7290061;19;20196;-89
2023/05/15 09:17:05;;;;;;;49.77;30.03;;;15.90;99.90;;;;;;7291930;19;20217;-89
2023/05/15 09:19:33;;;;;;;51.27;30.63;;;16.10;99.90;;;;;;7288470;19;20185;-89
2023/05/15 09:22:24;;;;;;;54.10;32.70;;;16.20;99.90;;;;;;7290652;19;20776;-89
2023/05/15 09:24:56;;;;;;;52.57;31.87;;;16.10;99.90;;;;;;7290342;19;20599;-89
2023/05/15 09:27:23;;;;;;;50.93;30.73;;;16.30;99.90;;;;;;7289187;19;20185;-89
2023/05/15 09:29:53;;;;;;;49.63;31.30;;;15.90;99.90;;;;;;7289938;19;20188;-90
2023/05/15 09:32:19;;;;;;;49.40;30.27;;;16.00;99.90;;;;;;7290749;19;20188;-89
2023/05/15 09:34:45;;;;;;;49.40;30.70;;;16.30;99.90;;;;;;7290224;19;20191;-89
2023/05/15 09:37:30;;;;;;;52.53;31.37;;;16.50;99.90;;;;;;7290454;19;20202;-89
2023/05/15 09:40:08;;;;;;;52.77;31.17;;;16.30;99.90;;;;;;7290959;19;20239;-89
2023/05/15 09:42:35;;;;;;;56.87;32.57;;;16.60;99.90;;;;;;7187640;19;2004606;-90
2023/05/15 09:45:01;;;;;;;53.40;31.73;;;16.80;99.90;;;;;;7291437;19;20181;-90
2023/05/15 09:47:27;;;;;;;55.53;31.77;;;16.90;99.90;;;;;;7302793;19;20213;-89
2023/05/15 09:49:52;;;;;;;51.83;30.93;;;17.20;99.90;;;;;;7311405;19;20185;-89
2023/05/15 09:52:18;;;;;;;51.57;31.53;;;17.40;99.90;;;;;;7291493;19;20219;-90
2023/05/15 09:54:48;;;;;;;50.83;31.17;;;17.70;99.90;;;;;;7287824;19;20450;-89
2023/05/15 09:57:14;;;;;;;49.23;30.03;;;17.80;99.90;;;;;;7288660;19;20200;-89
2023/05/15 09:59:44;;;;;;;54.17;32.57;;;17.90;99.90;;;;;;7287993;19;20196;-90
2023/05/15 10:02:21;;;;;;;53.83;31.17;;;18.00;99.90;;;;;;7287923;19;20209;-89
2023/05/15 10:04:56;;;;;;;50.10;30.30;;;18.40;99.90;;;;;;7289779;19;20203;-89
2023/05/15 10:07:30;;;;;;;51.73;31.70;;;18.60;99.90;;;;;;7290345;19;20192;-90
2023/05/15 10:09:56;;;;;;;46.83;28.80;;;18.80;99.90;;;;;;7289264;19;20189;-90
2023/05/15 10:12:22;;;;;;;49.03;29.57;;;19.30;99.90;;;;;;7289213;19;20202;-91
2023/05/15 10:14:50;;;;;;;45.93;28.90;;;19.30;99.90;;;;;;7288945;19;20178;-90
2023/05/15 10:17:19;;;;;;;48.20;29.63;;;19.30;99.90;;;;;;7288261;19;20223;-91
2023/05/15 10:19:47;;;;;;;45.30;28.03;;;19.20;99.90;;;;;;7288600;19;20305;-90
2023/05/15 10:22:14;;;;;;;48.10;29.73;;;19.30;99.90;;;;;;7288926;19;20264;-90
2023/05/15 10:24:43;;;;;;;43.20;25.43;;;19.30;99.90;;;;;;7288006;19;20192;-91
2023/05/15 10:27:10;;;;;;;41.47;25.27;;;19.30;99.90;;;;;;7288916;19;20223;-90
2023/05/15 10:29:37;;;;;;;39.33;24.93;;;19.20;99.90;;;;;;7287716;19;20186;-90
2023/05/15 10:32:03;;;;;;;39.17;25.73;;;18.70;99.90;;;;;;7288219;19;20653;-91
2023/05/15 10:34:30;;;;;;;40.23;25.97;;;19.10;99.90;;;;;;7287818;19;20180;-89
2023/05/15 10:36:56;;;;;;;40.33;25.90;;;19.50;99.90;;;;;;7309806;19;20661;-90
2023/05/15 10:39:23;;;;;;;40.10;25.83;;;19.80;99.90;;;;;;7290064;19;20195;-91
2023/05/15 10:41:50;;;;;;;40.43;25.97;;;19.20;99.90;;;;;;7287851;19;20669;-90
2023/05/15 10:44:16;;;;;;;44.03;27.67;;;19.40;99.90;;;;;;7289120;19;20653;-90
2023/05/15 10:46:43;;;;;;;42.83;26.23;;;19.10;99.90;;;;;;7286865;19;20195;-90
2023/05/15 10:49:08;;;;;;;41.00;26.20;;;19.10;99.90;;;;;;7287293;19;20196;-90
2023/05/15 10:51:38;;;;;;;43.70;27.43;;;19.30;99.90;;;;;;7287495;19;20195;-90
2023/05/15 10:54:04;;;;;;;42.40;27.53;;;19.40;99.90;;;;;;7288905;19;20199;-90
2023/05/15 10:56:32;;;;;;;43.40;27.37;;;19.10;99.90;;;;;;7289423;19;20191;-91
2023/05/15 10:59:06;;;;;;;46.30;27.80;;;18.90;99.90;;;;;;7296370;19;20189;-91
2023/05/15 11:01:33;;;;;;;50.97;29.43;;;19.00;99.90;;;;;;7287806;19;20193;-90
2023/05/15 11:04:16;;;;;;;46.77;28.03;;;19.20;99.90;;;;;;7288155;19;20751;-91
2023/05/15 11:06:44;;;;;;;46.10;27.93;;;19.30;99.90;;;;;;7287389;19;20663;-90
2023/05/15 11:09:24;;;;;;;45.40;27.20;;;19.50;99.90;;;;;;7287725;19;20200;-90
2023/05/15 11:11:59;;;;;;;44.40;27.60;;;19.80;99.90;;;;;;7287835;19;20196;-90
2023/05/15 11:14:29;;;;;;;48.37;27.50;;;19.90;99.90;;;;;;7287536;19;20206;-90
2023/05/15 11:16:57;;;;;;;48.00;29.20;;;19.70;99.90;;;;;;7287065;19;20199;-90
2023/05/15 11:19:33;;;;;;;45.37;27.97;;;19.10;99.90;;;;;;7288043;19;20181;-90
2023/05/15 11:22:08;;;;;;;44.77;27.93;;;19.30;99.90;;;;;;7262619;19;20224;-91
2023/05/15 11:24:52;;;;;;;48.37;28.50;;;19.30;99.90;;;;;;7287792;19;20216;-89
2023/05/15 11:27:23;;;;;;;45.97;28.43;;;19.50;99.90;;;;;;7286392;19;20185;-91
2023/05/15 11:30:09;;;;;;;50.30;30.93;;;19.70;99.90;;;;;;7287270;19;20191;-90
2023/05/15 11:32:46;;;;;;;49.23;29.77;;;19.50;99.90;;;;;;7185084;19;2004564;-90
2023/05/15 11:35:34;;;;;;;47.80;28.97;;;19.70;99.90;;;;;;7285486;19;20196;-90
2023/05/15 11:38:15;;;;;;;49.77;29.70;;;19.60;99.90;;;;;;7266501;19;20192;-90
2023/05/15 11:40:47;;;;;;;54.60;30.87;;;19.50;99.90;;;;;;7285368;19;20195;-90
2023/05/15 11:43:24;;;;;;;58.77;35.10;;;19.40;99.90;;;;;;7286088;19;20188;-90
2023/05/15 11:46:03;;;;;;;60.47;35.07;;;19.00;99.90;;;;;;7286361;19;20191;-90
2023/05/15 11:48:32;;;;;;;59.80;34.70;;;18.70;99.90;;;;;;7264481;19;20208;-90
2023/05/15 11:51:00;;;;;;;61.97;35.53;;;18.80;99.90;;;;;;7299443;19;20238;-90
2023/05/15 11:53:28;;;;;;;59.13;35.23;;;18.90;99.90;;;;;;7308152;19;20200;-90
2023/05/15 11:55:54;;;;;;;66.40;36.60;;;18.50;99.90;;;;;;7286973;19;20189;-89
2023/05/15 11:58:24;;;;;;;64.60;36.83;;;18.40;99.90;;;;;;7290609;19;20190;-91
2023/05/15 12:00:52;;;;;;;65.50;37.50;;;18.40;99.90;;;;;;7294316;19;20205;-90
2023/05/15 12:03:26;;;;;;;71.00;39.07;;;18.20;99.90;;;;;;7292931;19;20182;-90
2023/05/15 12:05:52;;;;;;;70.93;38.37;;;18.10;99.90;;;;;;7292129;19;20201;-91
2023/05/15 12:08:22;;;;;;;69.43;38.17;;;18.20;99.90;;;;;;7292759;19;20193;-90
2023/05/15 12:10:51;;;;;;;72.33;38.87;;;18.60;99.90;;;;;;7292729;19;20544;-90
2023/05/15 12:13:17;;;;;;;77.53;40.80;;;18.70;99.90;;;;;;7292227;19;20206;-89
2023/05/15 12:15:45;;;;;;;75.97;38.30;;;18.90;99.90;;;;;;7292583;19;20193;-90
2023/05/15 12:18:11;;;;;;;69.63;38.27;;;19.20;99.90;;;;;;7292219;19;20199;-90
2023/05/15 12:20:39;;;;;;;69.33;38.67;;;19.30;99.90;;;;;;7291444;19;20757;-91
2023/05/15 12:23:09;;;;;;;64.47;36.33;;;19.40;99.90;;;;;;7292300;19;20197;-91
2023/05/15 12:25:35;;;;;;;67.33;36.67;;;19.20;99.90;;;;;;7292079;19;20212;-91
2023/05/15 12:28:04;;;;;;;62.43;35.13;;;18.70;99.90;;;;;;7293211;19;20189;-91
2023/05/15 12:30:32;;;;;;;63.77;35.13;;;18.60;99.90;;;;;;7291481;19;20181;-90